Time;durP1;ratioP1;P1;durP2;ratioP2;P2;SDS_P1;SDS_P2;PMS_P1;PMS_P2;Temp;Humidity;BMP_temperature;BMP_pressure;BME280_temperature;BME280_humidity;BME280_pressure;Samples;Min_cycle;Max_cycle;Signal;HPM_P1;HPM_P2
2023/04/30 00:01:24;;;;;;;16.00;11.27;;;12.90;1.00;;;;;;5115165;28;20162;-74
2023/04/30 00:03:49;;;;;;;19.03;12.00;;;13.00;1.00;;;;;;5097983;28;20189;-73
2023/04/30 00:06:15;;;;;;;19.13;12.30;;;12.90;1.00;;;;;;5114984;28;20530;-73
2023/04/30 00:08:41;;;;;;;18.73;13.00;;;12.90;1.00;;;;;;5125893;27;20624;-73
2023/04/30 00:11:06;;;;;;;18.00;12.07;;;12.90;1.00;;;;;;5135717;27;20189;-73
2023/04/30 00:13:35;;;;;;;20.57;12.37;;;12.90;1.00;;;;;;5121359;27;20613;-73
2023/04/30 00:16:06;;;;;;;18.13;13.27;;;12.90;1.00;;;;;;5096334;28;20540;-73
2023/04/30 00:18:32;;;;;;;15.40;11.50;;;12.90;1.00;;;;;;5128363;27;20449;-73
2023/04/30 00:20:58;;;;;;;19.87;13.57;;;12.90;1.00;;;;;;5135393;27;20418;-74
2023/04/30 00:23:23;;;;;;;19.43;13.23;;;13.00;1.00;;;;;;5135239;27;20202;-74
2023/04/30 00:25:49;;;;;;;22.43;11.60;;;12.90;1.00;;;;;;5135581;27;20160;-74
2023/04/30 00:28:17;;;;;;;19.50;13.20;;;12.90;1.00;;;;;;5126034;27;20260;-73
2023/04/30 00:30:44;;;;;;;22.37;12.63;;;12.90;1.00;;;;;;5114600;28;20636;-73
2023/04/30 00:33:10;;;;;;;19.70;13.63;;;13.00;1.00;;;;;;5114505;28;20479;-73
2023/04/30 00:35:36;;;;;;;21.60;13.63;;;12.90;1.00;;;;;;5114266;28;20427;-73
2023/04/30 00:38:02;;;;;;;21.27;14.30;;;12.90;1.00;;;;;;5122117;27;20188;-73
2023/04/30 00:40:28;;;;;;;24.03;14.70;;;12.90;1.00;;;;;;5134634;27;20176;-73
2023/04/30 00:42:54;;;;;;;21.57;13.27;;;12.80;1.00;;;;;;5134259;27;20212;-73
2023/04/30 00:45:23;;;;;;;28.47;15.27;;;12.90;1.00;;;;;;5134855;27;20785;-73
2023/04/30 00:47:53;;;;;;;19.70;14.10;;;12.90;1.00;;;;;;5120354;27;20439;-73
2023/04/30 00:50:19;;;;;;;23.73;14.13;;;12.90;1.00;;;;;;5118267;27;20450;-74
2023/04/30 00:52:45;;;;;;;25.47;15.47;;;12.90;1.00;;;;;;5095862;28;20442;-73
2023/04/30 00:55:11;;;;;;;22.20;14.03;;;12.80;1.00;;;;;;5114260;28;20166;-74
2023/04/30 00:57:47;;;;;;;24.60;15.93;;;12.70;1.00;;;;;;5114812;28;20178;-82
2023/04/30 01:00:14;;;;;;;18.23;13.27;;;12.60;1.00;;;;;;5113933;28;20500;-83
2023/04/30 01:03:17;;;;;;;25.23;16.80;;;12.40;1.00;;;;;;5095739;28;20554;-82
2023/04/30 01:09:05;;;;;;;24.00;15.23;;;12.20;1.00;;;;;;5113888;28;21029;-82
2023/04/30 01:12:06;;;;;;;25.20;15.63;;;12.00;1.00;;;;;;5114600;28;20530;-74
2023/04/30 01:15:05;;;;;;;27.80;15.50;;;11.90;1.00;;;;;;5051197;28;20191;-73
2023/04/30 01:17:37;;;;;;;28.13;15.93;;;11.70;1.00;;;;;;5040479;28;20417;-73
2023/04/30 01:20:06;;;;;;;26.37;14.63;;;11.60;1.00;;;;;;5051121;28;20988;-73
2023/04/30 01:22:44;;;;;;;24.27;15.50;;;11.50;1.00;;;;;;5053036;28;20414;-73
2023/04/30 01:25:23;;;;;;;25.23;15.60;;;11.40;1.00;;;;;;5071125;28;20395;-73
2023/04/30 01:28:05;;;;;;;26.20;16.50;;;11.30;1.00;;;;;;5071087;28;20886;-73
2023/04/30 01:30:32;;;;;;;26.90;16.90;;;11.20;1.00;;;;;;5070672;28;20480;-73
2023/04/30 01:32:58;;;;;;;29.07;17.73;;;11.10;1.00;;;;;;5071452;28;20472;-73
2023/04/30 01:35:57;;;;;;;24.60;16.70;;;11.00;1.00;;;;;;5071143;28;20711;-73
2023/04/30 01:39:00;;;;;;;27.40;15.57;;;11.00;1.00;;;;;;5054633;28;20415;-73
2023/04/30 01:41:54;;;;;;;27.83;15.43;;;10.90;1.00;;;;;;5071692;28;20415;-82
2023/04/30 01:44:53;;;;;;;32.43;16.77;;;10.80;1.00;;;;;;5070453;28;20413;-82
2023/04/30 01:47:41;;;;;;;29.37;17.00;;;10.80;1.00;;;;;;5080981;28;20456;-82
2023/04/30 01:50:53;;;;;;;28.50;17.33;;;10.70;1.00;;;;;;5083140;28;20756;-82
2023/04/30 01:53:43;;;;;;;28.10;16.47;;;10.70;1.00;;;;;;5095508;28;20431;-82
2023/04/30 01:56:24;;;;;;;30.77;17.70;;;10.70;1.00;;;;;;5113353;28;20443;-82
2023/04/30 01:59:23;;;;;;;29.40;17.10;;;10.70;1.00;;;;;;5126154;28;20513;-82
2023/04/30 02:01:55;;;;;;;30.10;18.10;;;10.70;1.00;;;;;;5134493;28;20373;-82
2023/04/30 02:04:23;;;;;;;29.37;17.87;;;10.80;1.00;;;;;;5115846;28;20414;-83
2023/04/30 02:06:53;;;;;;;33.33;19.80;;;10.70;1.00;;;;;;5134121;28;20368;-82
2023/04/30 02:09:53;;;;;;;32.57;19.87;;;10.80;1.00;;;;;;5118178;28;20409;-82
2023/04/30 02:12:19;;;;;;;30.13;17.90;;;10.70;1.00;;;;;;5125874;28;20549;-73
2023/04/30 02:14:45;;;;;;;31.83;17.33;;;10.70;1.00;;;;;;5134566;27;20441;-73
2023/04/30 02:17:11;;;;;;;35.20;18.70;;;10.70;1.00;;;;;;5122833;27;20231;-74
2023/04/30 02:19:36;;;;;;;33.00;19.33;;;10.70;1.00;;;;;;5133060;27;20268;-73
2023/04/30 02:22:02;;;;;;;31.20;19.53;;;10.70;1.00;;;;;;5135961;27;20281;-73
2023/04/30 02:24:27;;;;;;;29.70;19.03;;;10.70;1.00;;;;;;5132378;27;20201;-73
2023/04/30 02:27:17;;;;;;;29.97;18.50;;;10.60;1.00;;;;;;5124914;27;20189;-82
2023/04/30 02:30:00;;;;;;;31.70;20.00;;;10.60;1.00;;;;;;5116221;27;20232;-82
2023/04/30 02:32:53;;;;;;;31.63;18.47;;;10.60;1.00;;;;;;5118986;27;20914;-82
2023/04/30 02:35:54;;;;;;;33.37;19.37;;;10.60;1.00;;;;;;5137597;27;20506;-82
2023/04/30 02:38:35;;;;;;;30.47;18.70;;;10.50;1.00;;;;;;5131328;27;20393;-82
2023/04/30 02:41:41;;;;;;;37.63;19.83;;;10.50;1.00;;;;;;5116227;27;20976;-82
2023/04/30 02:44:07;;;;;;;34.40;19.27;;;10.60;1.00;;;;;;5116743;28;20359;-74
2023/04/30 02:46:35;;;;;;;32.40;20.00;;;10.70;1.00;;;;;;5116045;28;20428;-73
2023/04/30 02:49:01;;;;;;;37.93;19.63;;;10.80;1.00;;;;;;5119834;27;20504;-73
2023/04/30 02:51:27;;;;;;;31.50;19.20;;;10.80;1.00;;;;;;5129972;27;20494;-73
2023/04/30 02:53:52;;;;;;;32.37;18.97;;;10.80;1.00;;;;;;5137011;27;20166;-74
2023/04/30 02:56:18;;;;;;;37.40;19.63;;;10.80;1.00;;;;;;5136653;27;20443;-73
2023/04/30 02:58:45;;;;;;;40.13;20.20;;;10.80;1.00;;;;;;5125544;27;20576;-73
2023/04/30 03:01:11;;;;;;;38.57;20.80;;;10.80;1.00;;;;;;5136792;27;20415;-73
2023/04/30 03:03:36;;;;;;;31.17;18.80;;;10.90;1.00;;;;;;5119021;27;20443;-74
2023/04/30 03:06:05;;;;;;;33.13;21.23;;;10.90;1.00;;;;;;5116271;28;20601;-73
2023/04/30 03:08:31;;;;;;;31.33;18.90;;;10.90;1.00;;;;;;5128561;27;20567;-73
2023/04/30 03:10:56;;;;;;;32.00;19.63;;;11.00;1.00;;;;;;5118160;27;20433;-73
2023/04/30 03:13:24;;;;;;;35.10;20.30;;;10.90;1.00;;;;;;5116507;28;20150;-74
2023/04/30 03:16:00;;;;;;;30.47;19.20;;;11.00;1.00;;;;;;5097657;27;20170;-74
2023/04/30 03:18:28;;;;;;;34.73;19.40;;;11.00;1.00;;;;;;5130254;27;20513;-73
2023/04/30 03:20:54;;;;;;;32.40;19.87;;;11.00;1.00;;;;;;5132524;27;20430;-73
2023/04/30 03:23:20;;;;;;;34.77;18.97;;;11.00;1.00;;;;;;5115438;28;20417;-73
2023/04/30 03:25:46;;;;;;;33.87;19.17;;;11.10;1.00;;;;;;5115638;28;20871;-73
2023/04/30 03:28:47;;;;;;;32.47;19.63;;;11.10;1.00;;;;;;5097750;28;20402;-82
2023/04/30 03:31:53;;;;;;;29.57;18.87;;;11.20;1.00;;;;;;5115888;28;20416;-82
2023/04/30 03:34:53;;;;;;;31.70;18.40;;;11.20;1.00;;;;;;5115842;28;20383;-82
2023/04/30 03:37:23;;;;;;;30.53;18.70;;;11.20;1.00;;;;;;5115870;28;20363;-82
2023/04/30 03:39:53;;;;;;;34.43;20.37;;;11.20;1.00;;;;;;5115449;28;20390;-82
2023/04/30 03:42:53;;;;;;;28.43;18.50;;;11.30;1.00;;;;;;5115772;28;20382;-81
2023/04/30 03:45:53;;;;;;;31.47;18.90;;;11.30;1.00;;;;;;5115604;28;20378;-82
2023/04/30 03:48:30;;;;;;;28.90;18.17;;;11.20;1.00;;;;;;5124736;27;20405;-82
2023/04/30 03:51:00;;;;;;;29.07;19.57;;;11.20;1.00;;;;;;5118823;27;20872;-82
2023/04/30 03:53:41;;;;;;;28.57;18.63;;;11.20;1.00;;;;;;5097050;28;20418;-83
2023/04/30 03:56:47;;;;;;;28.53;17.80;;;11.30;1.00;;;;;;5115261;28;21008;-83
2023/04/30 03:59:13;;;;;;;32.50;18.60;;;11.20;1.00;;;;;;5100083;27;20405;-82
2023/04/30 04:01:54;;;;;;;30.43;18.93;;;11.20;1.00;;;;;;5134268;27;20446;-82
2023/04/30 04:07:41;;;;;;;35.97;19.20;;;11.10;1.00;;;;;;5127343;27;20464;-82
2023/04/30 04:10:07;;;;;;;32.13;18.57;;;11.10;1.00;;;;;;5097440;28;20775;-82
2023/04/30 04:12:34;;;;;;;34.83;19.70;;;11.10;1.00;;;;;;5113592;28;20193;-84
2023/04/30 04:15:00;;;;;;;33.13;20.10;;;11.00;1.00;;;;;;5096726;28;20374;-82
2023/04/30 04:17:35;;;;;;;30.07;19.20;;;11.00;1.00;;;;;;5096722;28;20412;-82
2023/04/30 04:20:35;;;;;;;30.07;19.23;;;11.00;1.00;;;;;;5114578;28;20181;-83
2023/04/30 04:23:23;;;;;;;32.70;19.40;;;11.00;1.00;;;;;;5096486;28;20450;-82
2023/04/30 04:25:53;;;;;;;33.37;19.30;;;11.00;1.00;;;;;;5115033;28;20362;-82
2023/04/30 04:28:41;;;;;;;36.63;19.80;;;11.00;1.00;;;;;;5096941;28;20485;-83
2023/04/30 04:31:48;;;;;;;35.30;19.33;;;10.90;1.00;;;;;;5096266;28;20423;-83
2023/04/30 04:34:53;;;;;;;28.63;17.87;;;10.90;1.00;;;;;;5114829;28;20468;-82
2023/04/30 04:37:29;;;;;;;35.43;18.83;;;10.90;1.00;;;;;;5095788;28;20410;-83
2023/04/30 04:40:06;;;;;;;32.13;19.80;;;10.90;1.00;;;;;;5113090;27;20418;-82
2023/04/30 04:43:23;;;;;;;35.00;19.73;;;10.90;1.00;;;;;;5135213;27;20904;-82
2023/04/30 04:46:24;;;;;;;30.13;18.20;;;10.90;1.00;;;;;;5116040;27;20387;-85
2023/04/30 04:48:54;;;;;;;35.83;18.60;;;10.90;1.00;;;;;;5105538;27;20422;-86
2023/04/30 04:51:24;;;;;;;30.80;19.00;;;10.90;1.00;;;;;;5096679;28;20521;-86
2023/04/30 04:54:05;;;;;;;33.03;17.90;;;10.90;1.00;;;;;;5123264;28;20400;-86
2023/04/30 04:57:23;;;;;;;30.13;17.90;;;11.00;1.00;;;;;;5117647;28;20750;-86
2023/04/30 04:59:53;;;;;;;29.90;18.00;;;11.00;1.00;;;;;;5126617;27;20405;-85
2023/04/30 05:02:53;;;;;;;34.00;17.80;;;11.00;1.00;;;;;;5116725;28;20920;-86
2023/04/30 05:08:40;;;;;;;31.27;17.30;;;11.10;1.00;;;;;;5134283;28;20622;-85
2023/04/30 05:11:53;;;;;;;28.90;17.90;;;11.10;1.00;;;;;;5117267;28;20421;-86
2023/04/30 05:14:23;;;;;;;29.97;18.00;;;11.10;1.00;;;;;;5115206;28;20162;-83
2023/04/30 05:16:49;;;;;;;30.73;18.23;;;11.00;1.00;;;;;;5113990;28;20446;-83
2023/04/30 05:19:23;;;;;;;29.57;17.50;;;11.00;1.00;;;;;;5113665;28;20496;-82
2023/04/30 05:22:11;;;;;;;30.43;17.27;;;10.90;1.00;;;;;;5126972;28;20180;-82
2023/04/30 05:25:23;;;;;;;30.30;17.10;;;10.80;1.00;;;;;;5122503;28;20434;-82
2023/04/30 05:27:53;;;;;;;28.53;17.90;;;10.80;1.00;;;;;;5114222;28;20366;-82
2023/04/30 05:30:23;;;;;;;26.27;16.67;;;10.90;1.00;;;;;;5127864;28;20392;-83
2023/04/30 05:33:23;;;;;;;33.07;16.63;;;10.80;1.00;;;;;;5099248;28;20445;-83
2023/04/30 05:36:11;;;;;;;26.97;16.87;;;10.80;1.00;;;;;;5114304;28;20366;-83
2023/04/30 05:38:59;;;;;;;25.60;16.43;;;10.80;1.00;;;;;;5113547;28;20769;-82
2023/04/30 05:41:47;;;;;;;23.30;15.50;;;10.80;1.00;;;;;;5114024;28;20749;-82
2023/04/30 05:44:53;;;;;;;29.40;16.57;;;10.80;1.00;;;;;;5114640;28;20362;-86
2023/04/30 05:47:23;;;;;;;27.67;16.87;;;10.80;1.00;;;;;;5096204;28;20408;-86
2023/04/30 05:50:23;;;;;;;27.10;16.30;;;10.90;1.00;;;;;;5124175;27;20422;-86
2023/04/30 05:53:23;;;;;;;31.00;16.50;;;10.90;1.00;;;;;;5138851;27;20419;-86
2023/04/30 05:56:05;;;;;;;23.90;15.57;;;10.90;1.00;;;;;;5114983;28;20393;-87
2023/04/30 05:58:37;;;;;;;26.97;15.90;;;10.90;1.00;;;;;;5118473;28;20369;-83
2023/04/30 06:01:11;;;;;;;26.07;14.80;;;14.10;1.00;;;;;;5137619;27;20493;-83
2023/04/30 06:03:41;;;;;;;26.00;15.40;;;11.10;1.00;;;;;;5138244;27;20444;-82
2023/04/30 06:06:23;;;;;;;27.70;15.33;;;11.20;1.00;;;;;;5119474;27;20365;-82
2023/04/30 06:08:49;;;;;;;20.63;13.70;;;11.20;1.00;;;;;;5119040;27;20827;-82
2023/04/30 06:11:15;;;;;;;23.23;14.37;;;11.20;1.00;;;;;;5117120;28;20396;-82
2023/04/30 06:13:53;;;;;;;23.70;14.23;;;11.30;1.00;;;;;;5117440;28;20162;-85
2023/04/30 06:16:23;;;;;;;21.70;14.10;;;11.40;1.00;;;;;;5122838;27;20400;-82
2023/04/30 06:18:59;;;;;;;22.90;14.30;;;11.50;1.00;;;;;;5137863;27;20383;-82
2023/04/30 06:24:47;;;;;;;22.30;13.93;;;11.40;1.00;;;;;;5116541;28;20476;-82
2023/04/30 06:27:26;;;;;;;23.00;13.10;;;11.50;1.00;;;;;;5116857;28;20434;-82
2023/04/30 06:29:53;;;;;;;21.47;13.47;;;11.60;1.00;;;;;;5099097;28;20177;-87
2023/04/30 06:32:23;;;;;;;19.13;13.20;;;11.60;1.00;;;;;;5117915;28;20884;-88
2023/04/30 06:34:54;;;;;;;22.93;13.27;;;11.70;1.00;;;;;;5117412;28;20411;-87
2023/04/30 06:37:23;;;;;;;20.60;12.87;;;11.80;1.00;;;;;;5099381;28;20407;-87
2023/04/30 06:40:23;;;;;;;22.27;11.97;;;11.90;1.00;;;;;;5117154;27;20416;-88
2023/04/30 06:43:23;;;;;;;19.40;11.17;;;12.00;1.00;;;;;;5117463;28;20380;-87
2023/04/30 06:46:23;;;;;;;16.47;10.57;;;12.10;1.00;;;;;;5118530;27;20423;-87
2023/04/30 06:48:53;;;;;;;16.67;10.43;;;12.20;1.00;;;;;;5119029;27;20474;-87
2023/04/30 06:51:54;;;;;;;19.87;11.00;;;12.40;1.00;;;;;;5102978;28;20450;-87
2023/04/30 06:54:29;;;;;;;17.20;10.80;;;12.40;1.00;;;;;;5099041;28;20768;-87
2023/04/30 07:00:23;;;;;;;16.20;10.00;;;12.60;1.00;;;;;;5116128;27;20418;-83
2023/04/30 07:02:55;;;;;;;16.10;9.60;;;12.70;1.00;;;;;;5125670;27;20423;-82
2023/04/30 07:05:23;;;;;;;15.30;9.73;;;12.70;1.00;;;;;;5114284;28;20788;-82
2023/04/30 07:07:53;;;;;;;13.40;8.60;;;12.90;1.00;;;;;;5098036;28;20418;-83
2023/04/30 07:10:23;;;;;;;13.67;9.00;;;12.90;1.00;;;;;;5097749;28;20814;-82
2023/04/30 07:12:49;;;;;;;14.17;9.23;;;13.00;1.00;;;;;;5100663;27;20506;-81
2023/04/30 07:15:15;;;;;;;14.03;9.17;;;13.00;1.00;;;;;;5120300;27;20474;-82
2023/04/30 07:18:17;;;;;;;14.43;7.30;;;13.10;1.00;;;;;;5128180;27;20185;-82
2023/04/30 07:20:54;;;;;;;12.37;7.90;;;13.20;1.00;;;;;;5115912;28;20644;-82
2023/04/30 07:23:42;;;;;;;11.50;7.57;;;13.30;1.00;;;;;;5115899;28;20878;-82
2023/04/30 07:26:25;;;;;;;11.00;8.00;;;13.40;1.00;;;;;;5116081;28;20466;-82
2023/04/30 07:28:54;;;;;;;10.30;7.47;;;13.60;1.00;;;;;;5115864;28;20387;-82
2023/04/30 07:31:24;;;;;;;10.83;7.67;;;13.70;1.00;;;;;;5136022;27;20410;-89
2023/04/30 07:33:54;;;;;;;13.50;8.27;;;13.70;1.00;;;;;;5118750;27;20440;-89
2023/04/30 07:36:53;;;;;;;16.53;8.20;;;13.80;1.00;;;;;;5118776;27;20381;-89
2023/04/30 07:39:19;;;;;;;11.63;8.70;;;13.80;1.00;;;;;;5118516;27;20450;-88
2023/04/30 07:41:53;;;;;;;13.33;7.83;;;14.00;1.00;;;;;;5118517;27;20421;-87
2023/04/30 07:44:48;;;;;;;11.23;7.20;;;14.00;1.00;;;;;;5117951;27;20176;-88
2023/04/30 07:47:24;;;;;;;10.97;7.20;;;14.00;1.00;;;;;;5115126;28;20913;-83
2023/04/30 07:49:54;;;;;;;9.53;6.20;;;14.10;1.00;;;;;;5115510;28;20425;-83
2023/04/30 07:52:23;;;;;;;10.73;6.70;;;14.30;1.00;;;;;;5115142;27;20479;-81
2023/04/30 07:54:53;;;;;;;11.07;6.57;;;14.40;1.00;;;;;;5096580;28;20842;-81
2023/04/30 07:57:25;;;;;;;8.47;5.70;;;14.60;1.00;;;;;;5114965;28;20969;-81
2023/04/30 07:59:53;;;;;;;11.57;6.30;;;14.60;1.00;;;;;;5097049;28;20408;-83
2023/04/30 08:02:23;;;;;;;10.43;5.67;;;14.60;1.00;;;;;;5121118;27;20810;-82
2023/04/30 08:04:53;;;;;;;9.90;5.97;;;14.60;1.00;;;;;;5127824;27;20767;-81
2023/04/30 08:07:24;;;;;;;17.03;5.97;;;14.70;1.00;;;;;;5096648;28;20423;-81
2023/04/30 08:09:53;;;;;;;8.03;6.13;;;14.90;1.00;;;;;;5096297;28;20476;-81
2023/04/30 08:12:23;;;;;;;7.80;6.07;;;14.90;1.00;;;;;;5116199;27;20491;-81
2023/04/30 08:15:15;;;;;;;7.53;5.80;;;15.00;1.00;;;;;;5118828;27;20444;-81
2023/04/30 08:17:53;;;;;;;10.30;6.20;;;16.50;1.00;;;;;;5109626;27;20435;-89
2023/04/30 08:20:23;;;;;;;9.50;5.90;;;15.10;1.00;;;;;;5123153;27;20419;-89
2023/04/30 08:22:53;;;;;;;12.17;5.90;;;15.20;1.00;;;;;;5115570;28;20367;-89
2023/04/30 08:25:47;;;;;;;8.20;6.27;;;15.40;1.00;;;;;;5097490;28;20832;-89
2023/04/30 08:28:23;;;;;;;8.40;5.30;;;15.40;1.00;;;;;;5097549;28;20495;-89
2023/04/30 08:31:11;;;;;;;8.03;5.10;;;15.50;1.00;;;;;;5112370;27;20514;-82
2023/04/30 08:33:42;;;;;;;8.17;5.10;;;15.70;1.00;;;;;;5116547;27;20420;-81
2023/04/30 08:36:07;;;;;;;10.20;5.50;;;15.80;1.00;;;;;;5116604;27;20403;-82
2023/04/30 08:38:53;;;;;;;8.87;5.50;;;16.00;1.00;;;;;;5116549;28;20514;-81
2023/04/30 08:41:31;;;;;;;6.80;5.63;;;16.10;1.00;;;;;;5134993;27;20530;-82
2023/04/30 08:44:01;;;;;;;8.20;5.40;;;16.10;1.00;;;;;;5101159;28;20524;-81
2023/04/30 08:50:23;;;;;;;6.87;5.40;;;16.00;1.00;;;;;;5114856;28;20449;-90
2023/04/30 08:52:54;;;;;;;5.30;4.80;;;16.00;1.00;;;;;;5114914;28;20445;-90
2023/04/30 08:55:26;;;;;;;7.23;4.87;;;16.20;1.00;;;;;;5115199;28;20892;-90
2023/04/30 08:57:53;;;;;;;8.17;5.73;;;16.20;1.00;;;;;;5096612;28;20506;-90
2023/04/30 09:00:25;;;;;;;5.87;5.00;;;16.30;1.00;;;;;;5096801;28;20399;-91
2023/04/30 09:06:16;;;;;;;17.30;5.30;;;16.50;1.00;;;;;;5114595;28;20438;-90
2023/04/30 09:08:53;;;;;;;7.13;4.83;;;16.70;1.00;;;;;;5126748;28;20954;-90
2023/04/30 09:11:29;;;;;;;6.53;4.63;;;16.80;1.00;;;;;;5130331;28;20442;-89
2023/04/30 09:14:22;;;;;;;9.10;4.20;;;16.90;1.00;;;;;;5114277;28;20429;-90
2023/04/30 09:16:53;;;;;;;7.30;4.57;;;17.00;1.00;;;;;;5117025;28;20504;-82
2023/04/30 09:19:29;;;;;;;5.40;3.57;;;17.10;1.00;;;;;;5114122;28;20429;-81
2023/04/30 09:22:23;;;;;;;4.00;3.57;;;17.10;1.00;;;;;;5111632;28;20424;-82
2023/04/30 09:24:53;;;;;;;5.10;3.40;;;17.20;1.00;;;;;;5118879;28;20456;-82
2023/04/30 09:27:23;;;;;;;4.00;3.23;;;17.30;1.00;;;;;;5117796;28;20452;-82
2023/04/30 09:29:53;;;;;;;3.53;3.23;;;17.30;1.00;;;;;;5117975;28;20826;-82
2023/04/30 09:32:24;;;;;;;3.80;3.00;;;17.40;1.00;;;;;;5100288;28;20454;-91
2023/04/30 09:34:54;;;;;;;3.77;2.60;;;17.60;1.00;;;;;;5100502;28;20484;-91
2023/04/30 09:37:53;;;;;;;3.67;2.30;;;17.70;1.00;;;;;;5117396;28;20398;-91
2023/04/30 09:40:40;;;;;;;9.23;2.60;;;17.70;1.00;;;;;;5117471;28;20414;-90
2023/04/30 09:43:23;;;;;;;9.10;2.70;;;17.80;1.00;;;;;;5100518;28;20588;-90
2023/04/30 09:49:18;;;;;;;2.60;2.40;;;18.00;1.00;;;;;;5117479;28;20455;-82
2023/04/30 09:52:06;;;;;;;5.53;2.93;;;18.10;1.00;;;;;;5118111;28;20490;-81
2023/04/30 09:54:48;;;;;;;10.23;2.50;;;18.10;1.00;;;;;;5117296;28;20934;-82
2023/04/30 09:57:36;;;;;;;6.40;2.70;;;18.10;1.00;;;;;;5098818;28;20784;-81
2023/04/30 10:00:23;;;;;;;8.07;2.40;;;18.20;1.00;;;;;;5117608;28;20824;-82
2023/04/30 10:02:54;;;;;;;5.30;1.97;;;18.40;1.00;;;;;;5118190;28;20425;-90
2023/04/30 10:05:54;;;;;;;1.60;1.50;;;18.50;1.00;;;;;;5133948;27;20464;-91
2023/04/30 10:08:49;;;;;;;3.60;2.30;;;18.50;1.00;;;;;;5120497;27;20998;-90
2023/04/30 10:11:53;;;;;;;2.07;1.97;;;18.60;1.00;;;;;;5120235;27;20447;-90
2023/04/30 10:14:19;;;;;;;2.60;2.10;;;18.70;1.00;;;;;;5103321;28;20428;-74
2023/04/30 10:17:42;;;;;;;2.60;2.17;;;18.80;1.00;;;;;;5116381;27;20429;-82
2023/04/30 10:20:10;;;;;;;2.10;2.00;;;19.00;1.00;;;;;;5137614;27;20458;-82
2023/04/30 10:22:48;;;;;;;3.17;1.77;;;19.00;1.00;;;;;;5137335;27;20431;-82
2023/04/30 10:25:18;;;;;;;2.57;2.37;;;19.10;1.00;;;;;;5137198;27;20894;-82
2023/04/30 10:27:54;;;;;;;2.50;2.30;;;19.20;1.00;;;;;;5120122;27;20420;-82
2023/04/30 10:30:24;;;;;;;3.50;2.30;;;19.30;1.00;;;;;;5119008;27;20505;-81
2023/04/30 10:33:07;;;;;;;2.33;1.80;;;19.30;1.00;;;;;;5116995;27;20453;-73
2023/04/30 10:35:48;;;;;;;2.10;2.00;;;19.50;1.00;;;;;;5115310;28;20403;-73
2023/04/30 10:38:25;;;;;;;2.10;2.00;;;19.50;1.00;;;;;;5116040;28;20475;-73
2023/04/30 10:40:56;;;;;;;2.20;1.90;;;19.60;1.00;;;;;;5116593;27;20460;-73
2023/04/30 10:43:23;;;;;;;1.93;1.83;;;19.60;1.00;;;;;;5126400;27;20439;-73
2023/04/30 10:45:49;;;;;;;2.30;2.10;;;19.60;1.00;;;;;;5136772;27;20788;-74
2023/04/30 10:48:41;;;;;;;4.13;1.40;;;19.60;1.00;;;;;;5136390;27;20393;-82
2023/04/30 10:51:07;;;;;;;2.50;1.60;;;19.70;1.00;;;;;;5116702;28;20275;-82
2023/04/30 10:53:36;;;;;;;4.20;1.60;;;19.80;1.00;;;;;;5130252;27;20818;-82
2023/04/30 10:56:38;;;;;;;1.73;1.60;;;19.90;1.00;;;;;;5116026;28;20914;-82
2023/04/30 10:59:04;;;;;;;1.30;1.30;;;20.00;1.00;;;;;;5115810;28;20474;-82
2023/04/30 11:01:30;;;;;;;1.77;1.37;;;20.00;1.00;;;;;;5127713;27;20434;-82
2023/04/30 11:04:08;;;;;;;7.40;1.60;;;20.00;1.00;;;;;;5109930;27;20686;-73
2023/04/30 11:06:55;;;;;;;1.40;1.30;;;20.10;1.00;;;;;;5132394;27;20175;-74
2023/04/30 11:09:40;;;;;;;3.17;1.50;;;20.40;1.00;;;;;;5115045;28;20409;-73
2023/04/30 11:12:18;;;;;;;1.30;1.10;;;20.20;1.00;;;;;;5115486;27;20457;-73
2023/04/30 11:14:45;;;;;;;1.30;1.10;;;20.20;1.00;;;;;;5117043;27;20437;-74
2023/04/30 11:17:22;;;;;;;2.20;1.17;;;20.20;1.00;;;;;;5115391;28;20971;-82
2023/04/30 11:19:59;;;;;;;2.20;0.90;;;20.10;1.00;;;;;;5118266;27;20452;-82
2023/04/30 11:22:37;;;;;;;1.40;1.10;;;19.90;1.00;;;;;;5136583;27;20432;-82
2023/04/30 11:25:18;;;;;;;0.97;0.97;;;19.70;1.00;;;;;;5120857;27;20508;-82
2023/04/30 11:27:49;;;;;;;2.60;1.03;;;19.80;1.00;;;;;;5115577;28;20466;-82
2023/04/30 11:30:16;;;;;;;2.20;0.97;;;19.90;1.00;;;;;;5115391;28;20408;-82
2023/04/30 11:32:48;;;;;;;0.70;0.70;;;20.10;1.00;;;;;;5097947;28;20454;-78
2023/04/30 11:35:18;;;;;;;1.00;0.90;;;20.20;1.00;;;;;;5131206;27;20417;-81
2023/04/30 11:37:55;;;;;;;1.03;0.80;;;20.30;1.00;;;;;;5135682;27;20429;-81
2023/04/30 11:40:25;;;;;;;1.63;0.90;;;20.50;1.00;;;;;;5136390;27;20389;-80
2023/04/30 11:42:54;;;;;;;0.83;0.83;;;20.50;1.00;;;;;;5135927;27;20470;-85
2023/04/30 11:45:24;;;;;;;0.90;0.90;;;20.60;1.00;;;;;;5119753;27;20506;-86
2023/04/30 11:48:23;;;;;;;0.70;0.70;;;20.70;1.00;;;;;;5119745;27;20900;-86
2023/04/30 11:51:23;;;;;;;0.80;0.80;;;20.80;1.00;;;;;;5136589;27;20468;-85
2023/04/30 11:53:54;;;;;;;0.70;0.70;;;20.60;1.00;;;;;;5102960;28;20484;-87
2023/04/30 11:56:48;;;;;;;0.70;0.70;;;20.40;1.00;;;;;;5097647;28;20457;-86
2023/04/30 11:59:18;;;;;;;1.50;0.83;;;20.40;1.00;;;;;;5097412;28;20402;-85
2023/04/30 12:01:54;;;;;;;1.10;0.80;;;20.60;1.00;;;;;;5097566;28;20800;-86
2023/04/30 12:04:24;;;;;;;0.80;0.80;;;20.70;1.00;;;;;;5103359;27;20418;-90
2023/04/30 12:06:54;;;;;;;2.50;0.70;;;20.80;1.00;;;;;;5117945;27;20395;-90
2023/04/30 12:09:19;;;;;;;1.53;0.70;;;21.00;1.00;;;;;;5117565;27;20444;-90
2023/04/30 12:11:47;;;;;;;0.80;0.80;;;21.10;1.00;;;;;;5114816;28;20455;-90
2023/04/30 12:14:18;;;;;;;1.10;0.70;;;21.20;1.00;;;;;;5097564;28;20166;-90
2023/04/30 12:16:52;;;;;;;0.90;0.90;;;21.10;1.00;;;;;;5097179;28;20971;-90
2023/04/30 12:19:24;;;;;;;0.70;0.60;;;21.10;1.00;;;;;;5102282;28;20472;-90
2023/04/30 12:21:54;;;;;;;0.90;0.90;;;21.10;1.00;;;;;;5097330;28;20419;-90
2023/04/30 12:24:54;;;;;;;0.83;0.80;;;21.20;1.00;;;;;;5126698;27;20991;-90
2023/04/30 12:27:36;;;;;;;0.90;0.90;;;21.20;1.00;;;;;;5097180;28;20420;-90
2023/04/30 12:30:28;;;;;;;1.03;0.93;;;21.40;1.00;;;;;;5096868;28;20416;-90
2023/04/30 12:33:47;;;;;;;1.63;0.70;;;21.70;1.00;;;;;;5114884;28;20432;-90
2023/04/30 12:36:47;;;;;;;2.17;0.70;;;21.80;1.00;;;;;;5102594;27;20427;-90
2023/04/30 12:39:17;;;;;;;1.00;0.60;;;21.90;1.00;;;;;;5125854;27;20960;-90
2023/04/30 12:41:48;;;;;;;0.77;0.77;;;22.00;1.00;;;;;;5119957;27;20435;-89
2023/04/30 12:44:47;;;;;;;0.97;0.70;;;22.00;1.00;;;;;;5104982;28;20471;-90
2023/04/30 12:47:18;;;;;;;1.47;0.70;;;22.10;1.00;;;;;;5114867;28;20430;-87
2023/04/30 12:53:47;;;;;;;1.43;0.80;;;22.30;1.00;;;;;;5114858;27;20461;-82
2023/04/30 12:56:18;;;;;;;0.70;0.70;;;22.10;1.00;;;;;;5134701;27;20420;-85
2023/04/30 12:58:48;;;;;;;0.90;0.90;;;22.00;1.00;;;;;;5116763;28;20902;-86
2023/04/30 13:01:20;;;;;;;0.60;0.60;;;22.10;1.00;;;;;;5116987;27;20403;-84
2023/04/30 13:04:17;;;;;;;0.80;0.80;;;22.20;1.00;;;;;;5110772;28;20938;-85
2023/04/30 13:06:54;;;;;;;0.80;0.80;;;22.40;1.00;;;;;;5095986;28;20421;-84
2023/04/30 13:09:23;;;;;;;0.87;0.80;;;22.50;1.00;;;;;;5095718;28;20979;-83
2023/04/30 13:15:47;;;;;;;0.70;0.70;;;23.10;1.00;;;;;;5114076;28;20466;-89
2023/04/30 13:18:24;;;;;;;1.67;0.67;;;23.20;1.00;;;;;;5101435;28;20419;-91
2023/04/30 13:21:17;;;;;;;1.77;0.70;;;23.20;1.00;;;;;;5099131;28;20462;-88
2023/04/30 13:27:18;;;;;;;1.30;0.70;;;23.20;1.00;;;;;;5127667;28;20444;-88
2023/04/30 13:29:47;;;;;;;1.30;0.70;;;23.30;1.00;;;;;;5116899;28;20912;-88
2023/04/30 13:32:18;;;;;;;1.10;0.90;;;23.30;1.00;;;;;;5116172;28;20967;-87
2023/04/30 13:35:18;;;;;;;8.00;1.10;;;23.10;1.00;;;;;;5115563;28;20422;-91
2023/04/30 13:38:17;;;;;;;1.80;0.80;;;23.00;1.00;;;;;;5116467;28;20412;-91
2023/04/30 13:40:47;;;;;;;1.63;1.17;;;23.10;1.00;;;;;;5101347;28;20990;-87
2023/04/30 13:43:18;;;;;;;0.93;0.90;;;23.10;1.00;;;;;;5096588;28;20444;-90
2023/04/30 13:45:47;;;;;;;2.60;0.80;;;23.10;1.00;;;;;;5105515;28;20433;-91
2023/04/30 13:48:18;;;;;;;0.97;0.93;;;23.10;1.00;;;;;;5097939;28;20425;-90
2023/04/30 13:50:48;;;;;;;0.83;0.80;;;23.00;1.00;;;;;;5096701;28;20430;-87
2023/04/30 13:56:48;;;;;;;1.23;0.80;;;23.30;1.00;;;;;;5114257;28;20540;-84
2023/04/30 13:59:18;;;;;;;1.93;0.83;;;23.60;1.00;;;;;;5096083;28;20422;-85
2023/04/30 14:01:47;;;;;;;0.70;0.70;;;23.80;1.00;;;;;;5107246;28;20455;-83
2023/04/30 14:04:47;;;;;;;1.00;0.80;;;24.10;1.00;;;;;;5096388;28;20407;-85
2023/04/30 14:07:18;;;;;;;1.37;0.70;;;24.30;1.00;;;;;;5096603;28;20471;-85
2023/04/30 14:13:17;;;;;;;1.83;0.70;;;23.90;1.00;;;;;;5132098;27;20471;-86
2023/04/30 14:15:48;;;;;;;0.60;0.60;;;23.80;1.00;;;;;;5115792;28;20413;-86
2023/04/30 14:18:21;;;;;;;0.80;0.80;;;23.60;1.00;;;;;;5099580;28;20470;-86
2023/04/30 14:20:48;;;;;;;1.47;0.70;;;23.70;1.00;;;;;;5102263;27;20439;-86
2023/04/30 14:23:14;;;;;;;0.90;0.70;;;23.80;1.00;;;;;;5120017;27;20441;-87
2023/04/30 14:26:05;;;;;;;0.70;0.70;;;23.90;1.00;;;;;;5119938;27;20456;-87